sensor_id;sensor_type;location;lat;lon;timestamp;pressure;altitude;pressure_sealevel;temperature;humidity
23118;BME280;11728;50.624;6.014;2023-02-08T00:00:03;100376.31;;;0.31;52.65
23118;BME280;11728;50.624;6.014;2023-02-08T00:05:04;100363.94;;;0.43;52.06
23118;BME280;11728;50.624;6.014;2023-02-08T00:10:05;100354.75;;;0.67;50.29
23118;BME280;11728;50.624;6.014;2023-02-08T00:15:06;100349.53;;;0.84;48.90
23118;BME280;11728;50.624;6.014;2023-02-08T00:20:07;100340.34;;;0.91;48.09
23118;BME280;11728;50.624;6.014;2023-02-08T00:25:08;100329.13;;;0.92;48.04
23118;BME280;11728;50.624;6.014;2023-02-08T00:30:09;100328.88;;;0.70;48.92
23118;BME280;11728;50.624;6.014;2023-02-08T00:35:09;100323.56;;;0.50;49.22
23118;BME280;11728;50.624;6.014;2023-02-08T00:40:10;100332.63;;;0.40;49.49
23118;BME280;11728;50.624;6.014;2023-02-08T00:45:11;100323.69;;;0.35;49.88
23118;BME280;11728;50.624;6.014;2023-02-08T00:50:11;100318.94;;;0.27;50.12
23118;BME280;11728;50.624;6.014;2023-02-08T00:55:11;100336.59;;;0.16;50.90
23118;BME280;11728;50.624;6.014;2023-02-08T01:00:12;100336.69;;;0.02;51.37
23118;BME280;11728;50.624;6.014;2023-02-08T01:05:12;100328.38;;;-0.08;51.61
23118;BME280;11728;50.624;6.014;2023-02-08T01:10:13;100325.78;;;-0.08;51.67
23118;BME280;11728;50.624;6.014;2023-02-08T01:15:13;100317.09;;;-0.09;51.63
23118;BME280;11728;50.624;6.014;2023-02-08T01:20:14;100323.41;;;-0.04;50.85
23118;BME280;11728;50.624;6.014;2023-02-08T01:25:14;100320.38;;;0.04;50.33
23118;BME280;11728;50.624;6.014;2023-02-08T01:30:15;100322.09;;;0.04;49.63
23118;BME280;11728;50.624;6.014;2023-02-08T01:35:16;100324.88;;;0.07;49.86
23118;BME280;11728;50.624;6.014;2023-02-08T01:40:17;100315.34;;;0.07;49.12
23118;BME280;11728;50.624;6.014;2023-02-08T01:50:24;100319.75;;;0.08;48.25
23118;BME280;11728;50.624;6.014;2023-02-08T01:55:31;100306.88;;;0.11;47.83
23118;BME280;11728;50.624;6.014;2023-02-08T02:00:33;100296.97;;;0.20;46.86
23118;BME280;11728;50.624;6.014;2023-02-08T02:05:42;100295.19;;;0.19;46.59
23118;BME280;11728;50.624;6.014;2023-02-08T02:10:43;100299.44;;;0.17;46.58
23118;BME280;11728;50.624;6.014;2023-02-08T02:15:44;100289.97;;;0.19;46.07
23118;BME280;11728;50.624;6.014;2023-02-08T02:41:55;100307.28;;;-0.14;46.52
23118;BME280;11728;50.624;6.014;2023-02-08T02:47:37;100303.25;;;-0.25;47.25
23118;BME280;11728;50.624;6.014;2023-02-08T02:52:50;100303.78;;;-0.48;48.68
23118;BME280;11728;50.624;6.014;2023-02-08T02:57:55;100303.00;;;-0.63;49.54
23118;BME280;11728;50.624;6.014;2023-02-08T03:02:58;100304.44;;;-0.68;49.88
23118;BME280;11728;50.624;6.014;2023-02-08T03:08:09;100305.00;;;-0.74;50.69
23118;BME280;11728;50.624;6.014;2023-02-08T03:24:01;100293.66;;;-0.91;50.56
23118;BME280;11728;50.624;6.014;2023-02-08T03:34:42;100282.63;;;-1.03;51.40
23118;BME280;11728;50.624;6.014;2023-02-08T03:39:46;100298.91;;;-1.06;51.30
23118;BME280;11728;50.624;6.014;2023-02-08T03:44:53;100290.00;;;-1.11;51.99
23118;BME280;11728;50.624;6.014;2023-02-08T03:49:58;100305.13;;;-1.18;52.17
23118;BME280;11728;50.624;6.014;2023-02-08T03:55:04;100295.56;;;-1.19;52.08
23118;BME280;11728;50.624;6.014;2023-02-08T04:00:11;100288.19;;;-1.12;51.41
23118;BME280;11728;50.624;6.014;2023-02-08T04:05:13;100285.34;;;-1.16;51.57
23118;BME280;11728;50.624;6.014;2023-02-08T04:10:14;100287.53;;;-1.24;51.94
23118;BME280;11728;50.624;6.014;2023-02-08T04:15:15;100287.28;;;-1.28;51.56
23118;BME280;11728;50.624;6.014;2023-02-08T04:20:16;100280.31;;;-1.29;51.83
23118;BME280;11728;50.624;6.014;2023-02-08T04:25:16;100282.19;;;-1.27;51.92
23118;BME280;11728;50.624;6.014;2023-02-08T04:30:17;100286.84;;;-1.36;52.70
23118;BME280;11728;50.624;6.014;2023-02-08T04:35:18;100281.34;;;-1.42;53.02
23118;BME280;11728;50.624;6.014;2023-02-08T04:40:18;100290.97;;;-1.39;53.12
23118;BME280;11728;50.624;6.014;2023-02-08T04:45:18;100289.22;;;-1.40;52.94
23118;BME280;11728;50.624;6.014;2023-02-08T04:50:19;100280.06;;;-1.34;52.89
23118;BME280;11728;50.624;6.014;2023-02-08T04:55:19;100289.97;;;-1.27;52.43
23118;BME280;11728;50.624;6.014;2023-02-08T05:00:19;100288.50;;;-1.38;52.12
23118;BME280;11728;50.624;6.014;2023-02-08T05:05:20;100289.75;;;-1.46;52.18
23118;BME280;11728;50.624;6.014;2023-02-08T05:10:21;100298.84;;;-1.38;52.11
23118;BME280;11728;50.624;6.014;2023-02-08T05:15:21;100292.13;;;-1.34;51.86
23118;BME280;11728;50.624;6.014;2023-02-08T05:20:21;100291.56;;;-1.45;52.21
23118;BME280;11728;50.624;6.014;2023-02-08T05:25:22;100290.31;;;-1.65;52.77
23118;BME280;11728;50.624;6.014;2023-02-08T05:30:22;100290.50;;;-1.62;52.34
23118;BME280;11728;50.624;6.014;2023-02-08T05:35:22;100287.47;;;-1.55;51.89
23118;BME280;11728;50.624;6.014;2023-02-08T05:40:23;100289.66;;;-1.47;51.39
23118;BME280;11728;50.624;6.014;2023-02-08T05:45:23;100294.28;;;-1.42;50.70
23118;BME280;11728;50.624;6.014;2023-02-08T05:50:23;100295.75;;;-1.47;50.46
23118;BME280;11728;50.624;6.014;2023-02-08T05:55:24;100294.75;;;-1.49;50.10
23118;BME280;11728;50.624;6.014;2023-02-08T06:00:26;100294.22;;;-1.43;49.80
23118;BME280;11728;50.624;6.014;2023-02-08T06:05:26;100293.69;;;-1.52;50.36
23118;BME280;11728;50.624;6.014;2023-02-08T06:10:27;100303.72;;;-1.72;51.35
23118;BME280;11728;50.624;6.014;2023-02-08T06:15:27;100304.50;;;-1.89;52.22
23118;BME280;11728;50.624;6.014;2023-02-08T06:20:27;100300.91;;;-2.06;53.63
23118;BME280;11728;50.624;6.014;2023-02-08T06:25:28;100305.56;;;-2.15;54.83
23118;BME280;11728;50.624;6.014;2023-02-08T06:30:29;100314.84;;;-2.18;55.81
23118;BME280;11728;50.624;6.014;2023-02-08T06:35:29;100311.06;;;-2.23;56.17
23118;BME280;11728;50.624;6.014;2023-02-08T06:40:30;100314.03;;;-2.31;57.35
23118;BME280;11728;50.624;6.014;2023-02-08T06:45:30;100315.53;;;-2.35;58.10
23118;BME280;11728;50.624;6.014;2023-02-08T06:50:31;100309.72;;;-2.31;57.79
23118;BME280;11728;50.624;6.014;2023-02-08T06:55:31;100304.75;;;-2.28;57.70
23118;BME280;11728;50.624;6.014;2023-02-08T07:00:32;100303.84;;;-2.14;56.67
23118;BME280;11728;50.624;6.014;2023-02-08T07:05:35;100299.69;;;-2.12;56.99
23118;BME280;11728;50.624;6.014;2023-02-08T07:10:37;100294.66;;;-2.09;57.55
23118;BME280;11728;50.624;6.014;2023-02-08T07:15:39;100298.94;;;-1.95;56.70
23118;BME280;11728;50.624;6.014;2023-02-08T07:20:39;100292.34;;;-1.90;55.86
23118;BME280;11728;50.624;6.014;2023-02-08T07:25:39;100295.72;;;-1.91;56.58
23118;BME280;11728;50.624;6.014;2023-02-08T07:30:40;100288.31;;;-1.85;56.88
23118;BME280;11728;50.624;6.014;2023-02-08T07:35:40;100278.50;;;-1.76;56.95
23118;BME280;11728;50.624;6.014;2023-02-08T07:40:41;100277.06;;;-0.95;56.75
23118;BME280;11728;50.624;6.014;2023-02-08T07:45:41;100251.63;;;1.60;52.83
23118;BME280;11728;50.624;6.014;2023-02-08T07:50:41;100248.09;;;3.51;50.81
23118;BME280;11728;50.624;6.014;2023-02-08T07:55:44;100232.28;;;5.01;48.01
23118;BME280;11728;50.624;6.014;2023-02-08T08:00:44;100219.28;;;6.27;45.59
23118;BME280;11728;50.624;6.014;2023-02-08T08:05:45;100211.56;;;7.50;42.02
23118;BME280;11728;50.624;6.014;2023-02-08T08:10:45;100213.28;;;8.39;40.19
23118;BME280;11728;50.624;6.014;2023-02-08T08:15:46;100210.47;;;9.45;37.57
23118;BME280;11728;50.624;6.014;2023-02-08T08:20:46;100203.59;;;10.41;35.54
23118;BME280;11728;50.624;6.014;2023-02-08T08:25:46;100203.28;;;11.18;33.24
23118;BME280;11728;50.624;6.014;2023-02-08T08:30:47;100206.25;;;12.00;32.43
23118;BME280;11728;50.624;6.014;2023-02-08T08:35:47;100204.59;;;12.49;32.51
23118;BME280;11728;50.624;6.014;2023-02-08T08:40:48;100202.78;;;13.02;31.05
23118;BME280;11728;50.624;6.014;2023-02-08T08:45:48;100202.63;;;13.56;30.18
23118;BME280;11728;50.624;6.014;2023-02-08T08:50:48;100204.22;;;13.92;29.39
23118;BME280;11728;50.624;6.014;2023-02-08T08:55:49;100203.97;;;14.37;28.62
23118;BME280;11728;50.624;6.014;2023-02-08T09:00:49;100198.91;;;15.06;29.65
23118;BME280;11728;50.624;6.014;2023-02-08T09:05:50;100194.25;;;15.31;28.27
23118;BME280;11728;50.624;6.014;2023-02-08T09:10:50;100180.22;;;15.86;26.04
23118;BME280;11728;50.624;6.014;2023-02-08T09:15:50;100175.97;;;16.36;25.38
23118;BME280;11728;50.624;6.014;2023-02-08T09:20:51;100179.28;;;16.51;26.50
23118;BME280;11728;50.624;6.014;2023-02-08T09:25:51;100177.03;;;17.25;26.29
23118;BME280;11728;50.624;6.014;2023-02-08T09:30:51;100167.03;;;17.80;25.45
23118;BME280;11728;50.624;6.014;2023-02-08T09:35:52;100164.84;;;17.97;24.74
23118;BME280;11728;50.624;6.014;2023-02-08T09:41:02;100171.72;;;18.10;25.15
23118;BME280;11728;50.624;6.014;2023-02-08T09:46:15;100167.59;;;18.33;25.24
23118;BME280;11728;50.624;6.014;2023-02-08T09:51:37;100169.44;;;18.66;24.49
23118;BME280;11728;50.624;6.014;2023-02-08T09:56:40;100175.59;;;19.04;24.43
23118;BME280;11728;50.624;6.014;2023-02-08T10:01:41;100167.56;;;19.68;23.53
23118;BME280;11728;50.624;6.014;2023-02-08T10:06:42;100170.94;;;20.05;22.44
23118;BME280;11728;50.624;6.014;2023-02-08T10:12:00;100172.66;;;20.62;20.85
23118;BME280;11728;50.624;6.014;2023-02-08T10:37:33;100162.88;;;21.84;19.12
23118;BME280;11728;50.624;6.014;2023-02-08T10:42:35;100160.34;;;22.25;18.24
23118;BME280;11728;50.624;6.014;2023-02-08T10:47:52;100158.59;;;22.68;17.90
23118;BME280;11728;50.624;6.014;2023-02-08T10:52:53;100161.31;;;22.88;17.75
23118;BME280;11728;50.624;6.014;2023-02-08T10:57:57;100150.19;;;23.17;17.79
23118;BME280;11728;50.624;6.014;2023-02-08T11:03:01;100144.59;;;23.22;17.38
23118;BME280;11728;50.624;6.014;2023-02-08T11:08:16;100133.25;;;22.94;17.46
23118;BME280;11728;50.624;6.014;2023-02-08T11:13:19;100128.09;;;23.29;18.60
23118;BME280;11728;50.624;6.014;2023-02-08T11:18:23;100124.44;;;23.88;18.11
23118;BME280;11728;50.624;6.014;2023-02-08T11:23:31;100124.56;;;23.85;17.82
23118;BME280;11728;50.624;6.014;2023-02-08T11:28:31;100127.66;;;24.33;17.91
23118;BME280;11728;50.624;6.014;2023-02-08T11:33:32;100127.22;;;24.42;17.42
23118;BME280;11728;50.624;6.014;2023-02-08T11:38:34;100116.13;;;24.48;16.55
23118;BME280;11728;50.624;6.014;2023-02-08T11:43:39;100113.69;;;24.60;17.00
23118;BME280;11728;50.624;6.014;2023-02-08T11:48:44;100116.81;;;24.70;17.47
23118;BME280;11728;50.624;6.014;2023-02-08T11:53:48;100111.19;;;24.91;17.08
23118;BME280;11728;50.624;6.014;2023-02-08T11:59:03;100113.03;;;25.07;16.36
23118;BME280;11728;50.624;6.014;2023-02-08T12:04:08;100101.09;;;25.45;16.00
23118;BME280;11728;50.624;6.014;2023-02-08T12:25:43;100059.25;;;25.01;15.95
23118;BME280;11728;50.624;6.014;2023-02-08T12:41:53;100033.66;;;24.58;16.48
23118;BME280;11728;50.624;6.014;2023-02-08T12:52:27;100014.09;;;24.86;16.64
23118;BME280;11728;50.624;6.014;2023-02-08T12:57:31;100018.84;;;24.98;16.87
23118;BME280;11728;50.624;6.014;2023-02-08T13:02:37;100006.91;;;25.02;16.88
23118;BME280;11728;50.624;6.014;2023-02-08T13:07:45;100003.41;;;24.67;17.02
23118;BME280;11728;50.624;6.014;2023-02-08T13:12:48;100002.88;;;24.43;16.84
23118;BME280;11728;50.624;6.014;2023-02-08T13:17:54;99997.31;;;24.11;16.64
23118;BME280;11728;50.624;6.014;2023-02-08T13:23:00;99990.63;;;23.83;17.02
23118;BME280;11728;50.624;6.014;2023-02-08T13:28:04;99994.28;;;23.82;17.68
23118;BME280;11728;50.624;6.014;2023-02-08T13:33:17;99981.06;;;23.01;18.34
23118;BME280;11728;50.624;6.014;2023-02-08T13:38:32;99964.25;;;22.36;19.07
23118;BME280;11728;50.624;6.014;2023-02-08T13:43:41;99970.13;;;22.46;18.34
23118;BME280;11728;50.624;6.014;2023-02-08T13:58:59;99950.47;;;22.22;19.57
23118;BME280;11728;50.624;6.014;2023-02-08T14:04:28;99945.94;;;22.44;20.03
23118;BME280;11728;50.624;6.014;2023-02-08T14:10:03;99940.09;;;22.13;20.55
23118;BME280;11728;50.624;6.014;2023-02-08T14:15:07;99945.06;;;21.60;21.60
23118;BME280;11728;50.624;6.014;2023-02-08T14:20:38;99945.06;;;21.37;21.59
23118;BME280;11728;50.624;6.014;2023-02-08T14:25:42;99938.19;;;21.07;22.18
23118;BME280;11728;50.624;6.014;2023-02-08T14:30:49;99929.34;;;20.82;22.34
23118;BME280;11728;50.624;6.014;2023-02-08T14:35:54;99926.69;;;20.56;22.42
23118;BME280;11728;50.624;6.014;2023-02-08T14:41:00;99929.75;;;19.42;23.76
23118;BME280;11728;50.624;6.014;2023-02-08T14:52:18;99921.47;;;16.90;26.79
23118;BME280;11728;50.624;6.014;2023-02-08T14:57:25;99936.06;;;16.27;27.09
23118;BME280;11728;50.624;6.014;2023-02-08T15:02:28;99931.88;;;15.66;27.64
23118;BME280;11728;50.624;6.014;2023-02-08T15:07:46;99927.47;;;15.06;31.63
23118;BME280;11728;50.624;6.014;2023-02-08T15:12:51;99918.19;;;14.74;30.30
23118;BME280;11728;50.624;6.014;2023-02-08T15:17:53;99909.84;;;14.32;30.02
23118;BME280;11728;50.624;6.014;2023-02-08T15:23:05;99911.31;;;13.77;30.29
23118;BME280;11728;50.624;6.014;2023-02-08T15:28:20;99914.25;;;13.44;30.79
23118;BME280;11728;50.624;6.014;2023-02-08T15:33:21;99906.34;;;13.35;30.96
23118;BME280;11728;50.624;6.014;2023-02-08T15:38:22;99909.16;;;13.19;30.74
23118;BME280;11728;50.624;6.014;2023-02-08T15:43:22;99914.50;;;13.10;30.04
23118;BME280;11728;50.624;6.014;2023-02-08T15:48:24;99906.53;;;13.14;29.13
23118;BME280;11728;50.624;6.014;2023-02-08T15:53:25;99901.38;;;12.85;28.85
23118;BME280;11728;50.624;6.014;2023-02-08T15:58:43;99902.38;;;12.70;26.80
23118;BME280;11728;50.624;6.014;2023-02-08T16:03:47;99898.94;;;12.49;24.62
23118;BME280;11728;50.624;6.014;2023-02-08T16:08:50;99900.91;;;11.98;24.08
23118;BME280;11728;50.624;6.014;2023-02-08T16:13:54;99897.44;;;11.60;24.10
23118;BME280;11728;50.624;6.014;2023-02-08T16:19:05;99888.56;;;11.10;24.23
23118;BME280;11728;50.624;6.014;2023-02-08T16:24:23;99887.53;;;10.31;24.59
23118;BME280;11728;50.624;6.014;2023-02-08T16:29:26;99893.31;;;9.70;24.86
23118;BME280;11728;50.624;6.014;2023-02-08T16:34:29;99898.25;;;9.25;24.91
23118;BME280;11728;50.624;6.014;2023-02-08T16:45:10;99900.84;;;8.34;25.41
23118;BME280;11728;50.624;6.014;2023-02-08T16:50:35;99908.25;;;7.96;26.00
23118;BME280;11728;50.624;6.014;2023-02-08T16:55:35;99913.94;;;7.65;26.17
23118;BME280;11728;50.624;6.014;2023-02-08T17:00:37;99918.88;;;7.45;26.43
23118;BME280;11728;50.624;6.014;2023-02-08T17:05:38;99908.97;;;7.27;26.44
23118;BME280;11728;50.624;6.014;2023-02-08T17:10:39;99902.47;;;7.06;27.03
23118;BME280;11728;50.624;6.014;2023-02-08T17:15:39;99888.03;;;6.83;27.00
23118;BME280;11728;50.624;6.014;2023-02-08T17:20:40;99892.06;;;6.63;27.42
23118;BME280;11728;50.624;6.014;2023-02-08T17:25:41;99884.72;;;6.44;27.87
23118;BME280;11728;50.624;6.014;2023-02-08T17:30:43;99887.94;;;6.30;28.13
23118;BME280;11728;50.624;6.014;2023-02-08T17:35:49;99886.75;;;6.14;28.36
23118;BME280;11728;50.624;6.014;2023-02-08T17:40:49;99885.50;;;5.96;28.57
23118;BME280;11728;50.624;6.014;2023-02-08T17:45:49;99891.75;;;5.66;29.42
23118;BME280;11728;50.624;6.014;2023-02-08T17:50:50;99879.09;;;5.45;29.63
23118;BME280;11728;50.624;6.014;2023-02-08T17:55:52;99875.31;;;5.33;30.19
23118;BME280;11728;50.624;6.014;2023-02-08T18:00:53;99884.94;;;5.34;30.44
23118;BME280;11728;50.624;6.014;2023-02-08T18:05:56;99882.00;;;5.21;31.19
23118;BME280;11728;50.624;6.014;2023-02-08T18:11:02;99875.19;;;4.93;32.04
23118;BME280;11728;50.624;6.014;2023-02-08T18:16:08;99870.97;;;4.64;32.76
23118;BME280;11728;50.624;6.014;2023-02-08T18:21:14;99873.44;;;4.58;32.93
23118;BME280;11728;50.624;6.014;2023-02-08T18:26:17;99879.53;;;4.59;33.37
23118;BME280;11728;50.624;6.014;2023-02-08T18:31:19;99870.66;;;4.53;33.33
23118;BME280;11728;50.624;6.014;2023-02-08T18:36:21;99865.34;;;4.50;32.60
23118;BME280;11728;50.624;6.014;2023-02-08T18:41:25;99859.81;;;4.38;32.85
23118;BME280;11728;50.624;6.014;2023-02-08T18:46:27;99861.81;;;4.17;33.46
23118;BME280;11728;50.624;6.014;2023-02-08T18:51:27;99860.22;;;3.91;34.59
23118;BME280;11728;50.624;6.014;2023-02-08T18:56:28;99848.50;;;3.77;34.60
23118;BME280;11728;50.624;6.014;2023-02-08T19:01:29;99847.44;;;3.71;34.32
23118;BME280;11728;50.624;6.014;2023-02-08T19:06:32;99849.97;;;3.68;34.30
23118;BME280;11728;50.624;6.014;2023-02-08T19:11:36;99838.78;;;3.73;34.10
23118;BME280;11728;50.624;6.014;2023-02-08T19:16:37;99840.84;;;3.83;33.33
23118;BME280;11728;50.624;6.014;2023-02-08T19:21:38;99836.56;;;3.85;33.32
23118;BME280;11728;50.624;6.014;2023-02-08T19:26:39;99836.22;;;3.45;34.82
23118;BME280;11728;50.624;6.014;2023-02-08T19:31:41;99835.53;;;2.95;35.99
23118;BME280;11728;50.624;6.014;2023-02-08T19:36:45;99830.59;;;3.04;36.13
23118;BME280;11728;50.624;6.014;2023-02-08T19:41:46;99824.09;;;2.92;36.17
23118;BME280;11728;50.624;6.014;2023-02-08T19:46:53;99817.53;;;2.76;36.50
23118;BME280;11728;50.624;6.014;2023-02-08T19:51:54;99813.78;;;2.95;35.38
23118;BME280;11728;50.624;6.014;2023-02-08T19:56:55;99811.56;;;3.34;34.22
23118;BME280;11728;50.624;6.014;2023-02-08T20:01:55;99805.38;;;3.32;34.17
23118;BME280;11728;50.624;6.014;2023-02-08T20:06:56;99795.91;;;3.34;33.59
23118;BME280;11728;50.624;6.014;2023-02-08T20:11:56;99796.63;;;3.30;33.62
23118;BME280;11728;50.624;6.014;2023-02-08T20:17:00;99792.50;;;3.38;33.43
23118;BME280;11728;50.624;6.014;2023-02-08T20:22:00;99784.38;;;3.28;34.03
23118;BME280;11728;50.624;6.014;2023-02-08T20:27:00;99787.84;;;3.28;33.60
23118;BME280;11728;50.624;6.014;2023-02-08T20:32:01;99793.94;;;3.27;33.62
23118;BME280;11728;50.624;6.014;2023-02-08T20:37:01;99785.72;;;3.15;34.15
23118;BME280;11728;50.624;6.014;2023-02-08T20:42:02;99780.16;;;3.03;34.46
23118;BME280;11728;50.624;6.014;2023-02-08T20:47:03;99801.84;;;3.03;34.61
23118;BME280;11728;50.624;6.014;2023-02-08T20:52:03;99784.53;;;3.04;35.00
23118;BME280;11728;50.624;6.014;2023-02-08T20:57:04;99784.94;;;2.90;34.60
23118;BME280;11728;50.624;6.014;2023-02-08T21:02:05;99778.75;;;2.87;35.35
23118;BME280;11728;50.624;6.014;2023-02-08T21:07:05;99786.84;;;2.68;35.79
23118;BME280;11728;50.624;6.014;2023-02-08T21:12:06;99779.66;;;2.61;35.92
23118;BME280;11728;50.624;6.014;2023-02-08T21:17:06;99779.03;;;2.68;35.94
23118;BME280;11728;50.624;6.014;2023-02-08T21:22:08;99780.03;;;2.73;35.47
23118;BME280;11728;50.624;6.014;2023-02-08T21:27:08;99795.03;;;2.80;35.59
23118;BME280;11728;50.624;6.014;2023-02-08T21:32:09;99800.59;;;2.90;35.40
23118;BME280;11728;50.624;6.014;2023-02-08T21:37:09;99780.88;;;3.00;35.79
23118;BME280;11728;50.624;6.014;2023-02-08T21:42:10;99786.25;;;2.76;36.00
23118;BME280;11728;50.624;6.014;2023-02-08T21:47:10;99781.72;;;2.44;36.37
23118;BME280;11728;50.624;6.014;2023-02-08T21:52:10;99775.44;;;2.64;36.71
23118;BME280;11728;50.624;6.014;2023-02-08T21:57:29;99778.75;;;2.60;36.33
23118;BME280;11728;50.624;6.014;2023-02-08T22:02:36;99780.34;;;2.29;37.43
23118;BME280;11728;50.624;6.014;2023-02-08T22:12:47;99792.19;;;1.96;38.25
23118;BME280;11728;50.624;6.014;2023-02-08T22:17:56;99783.66;;;1.75;38.91
23118;BME280;11728;50.624;6.014;2023-02-08T22:22:57;99795.94;;;1.56;38.86
23118;BME280;11728;50.624;6.014;2023-02-08T22:27:57;99797.47;;;1.50;38.74
23118;BME280;11728;50.624;6.014;2023-02-08T22:32:58;99797.00;;;1.38;38.88
23118;BME280;11728;50.624;6.014;2023-02-08T22:37:58;99798.03;;;1.19;39.40
23118;BME280;11728;50.624;6.014;2023-02-08T22:42:58;99804.16;;;0.98;40.21
23118;BME280;11728;50.624;6.014;2023-02-08T22:47:59;99804.47;;;0.85;40.74
23118;BME280;11728;50.624;6.014;2023-02-08T22:52:59;99814.53;;;0.76;41.16
23118;BME280;11728;50.624;6.014;2023-02-08T22:57:59;99807.31;;;0.69;41.28
23118;BME280;11728;50.624;6.014;2023-02-08T23:03:00;99822.41;;;0.57;41.98
23118;BME280;11728;50.624;6.014;2023-02-08T23:08:00;99822.97;;;0.50;41.99
23118;BME280;11728;50.624;6.014;2023-02-08T23:13:01;99819.31;;;0.45;42.38
23118;BME280;11728;50.624;6.014;2023-02-08T23:18:02;99829.75;;;0.47;41.97
23118;BME280;11728;50.624;6.014;2023-02-08T23:23:03;99825.34;;;0.44;41.62
23118;BME280;11728;50.624;6.014;2023-02-08T23:28:03;99820.97;;;0.43;41.89
23118;BME280;11728;50.624;6.014;2023-02-08T23:33:04;99821.53;;;0.36;42.19
23118;BME280;11728;50.624;6.014;2023-02-08T23:38:04;99815.72;;;0.21;42.29
23118;BME280;11728;50.624;6.014;2023-02-08T23:43:04;99817.91;;;0.12;42.62
23118;BME280;11728;50.624;6.014;2023-02-08T23:48:05;99823.28;;;-0.03;42.87
23118;BME280;11728;50.624;6.014;2023-02-08T23:53:05;99822.91;;;-0.12;43.22
23118;BME280;11728;50.624;6.014;2023-02-08T23:58:05;99824.28;;;-0.20;43.41
